sensor_id;sensor_type;location;lat;lon;timestamp;pressure;altitude;pressure_sealevel;temperature;humidity
6778;BME280;3426;52.244;10.534;2022-11-15T00:01:22;100353.59;;;10.34;69.63
6778;BME280;3426;52.244;10.534;2022-11-15T00:03:52;100352.28;;;10.42;69.60
6778;BME280;3426;52.244;10.534;2022-11-15T00:06:18;100346.50;;;10.35;70.08
6778;BME280;3426;52.244;10.534;2022-11-15T00:08:45;100344.41;;;10.56;69.80
6778;BME280;3426;52.244;10.534;2022-11-15T00:11:12;100339.00;;;10.27;70.69
6778;BME280;3426;52.244;10.534;2022-11-15T00:13:39;100343.25;;;10.30;70.22
6778;BME280;3426;52.244;10.534;2022-11-15T00:16:05;100353.69;;;10.17;70.72
6778;BME280;3426;52.244;10.534;2022-11-15T00:18:32;100340.38;;;10.03;71.48
6778;BME280;3426;52.244;10.534;2022-11-15T00:21:07;100338.38;;;10.22;70.65
6778;BME280;3426;52.244;10.534;2022-11-15T00:23:34;100335.06;;;10.19;71.70
6778;BME280;3426;52.244;10.534;2022-11-15T00:26:00;100338.66;;;10.02;71.40
6778;BME280;3426;52.244;10.534;2022-11-15T00:28:27;100334.69;;;10.41;70.71
6778;BME280;3426;52.244;10.534;2022-11-15T00:30:54;100329.72;;;10.50;69.77
6778;BME280;3426;52.244;10.534;2022-11-15T00:33:20;100342.41;;;10.14;70.94
6778;BME280;3426;52.244;10.534;2022-11-15T00:35:46;100333.88;;;10.24;70.76
6778;BME280;3426;52.244;10.534;2022-11-15T00:38:13;100333.00;;;10.40;70.19
6778;BME280;3426;52.244;10.534;2022-11-15T00:40:39;100329.34;;;10.26;70.38
6778;BME280;3426;52.244;10.534;2022-11-15T00:43:06;100338.41;;;10.52;69.65
6778;BME280;3426;52.244;10.534;2022-11-15T00:45:32;100336.47;;;10.10;70.58
6778;BME280;3426;52.244;10.534;2022-11-15T00:47:59;100331.47;;;10.35;70.01
6778;BME280;3426;52.244;10.534;2022-11-15T00:50:25;100338.69;;;10.48;69.23
6778;BME280;3426;52.244;10.534;2022-11-15T00:52:52;100342.16;;;10.18;70.08
6778;BME280;3426;52.244;10.534;2022-11-15T00:55:19;100342.16;;;10.18;69.52
6778;BME280;3426;52.244;10.534;2022-11-15T00:57:46;100336.44;;;10.26;69.47
6778;BME280;3426;52.244;10.534;2022-11-15T01:00:13;100340.25;;;10.36;68.60
6778;BME280;3426;52.244;10.534;2022-11-15T01:02:39;100346.75;;;10.30;69.02
6778;BME280;3426;52.244;10.534;2022-11-15T01:05:07;100336.38;;;10.27;68.74
6778;BME280;3426;52.244;10.534;2022-11-15T01:07:33;100335.22;;;10.31;69.41
6778;BME280;3426;52.244;10.534;2022-11-15T01:10:00;100333.94;;;10.39;68.72
6778;BME280;3426;52.244;10.534;2022-11-15T01:12:26;100320.81;;;10.21;69.68
6778;BME280;3426;52.244;10.534;2022-11-15T01:14:53;100326.97;;;10.22;69.96
6778;BME280;3426;52.244;10.534;2022-11-15T01:17:20;100327.66;;;10.25;69.83
6778;BME280;3426;52.244;10.534;2022-11-15T01:19:46;100322.84;;;10.32;69.61
6778;BME280;3426;52.244;10.534;2022-11-15T01:22:13;100326.16;;;9.90;71.04
6778;BME280;3426;52.244;10.534;2022-11-15T01:24:39;100317.00;;;9.64;72.73
6778;BME280;3426;52.244;10.534;2022-11-15T01:27:06;100313.13;;;9.71;72.54
6778;BME280;3426;52.244;10.534;2022-11-15T01:29:32;100315.06;;;9.67;72.50
6778;BME280;3426;52.244;10.534;2022-11-15T01:31:59;100306.72;;;9.59;72.87
6778;BME280;3426;52.244;10.534;2022-11-15T01:34:25;100308.06;;;9.66;73.31
6778;BME280;3426;52.244;10.534;2022-11-15T01:36:55;100298.09;;;9.87;72.32
6778;BME280;3426;52.244;10.534;2022-11-15T01:39:21;100313.41;;;9.96;71.76
6778;BME280;3426;52.244;10.534;2022-11-15T01:41:48;100298.66;;;9.92;72.05
6778;BME280;3426;52.244;10.534;2022-11-15T01:47:02;100303.50;;;10.16;71.64
6778;BME280;3426;52.244;10.534;2022-11-15T01:49:30;100304.34;;;10.16;71.41
6778;BME280;3426;52.244;10.534;2022-11-15T01:52:00;100307.00;;;10.16;71.15
6778;BME280;3426;52.244;10.534;2022-11-15T01:54:28;100305.09;;;10.18;71.42
6778;BME280;3426;52.244;10.534;2022-11-15T01:57:03;100300.16;;;10.12;71.61
6778;BME280;3426;52.244;10.534;2022-11-15T01:59:33;100290.59;;;10.09;71.77
6778;BME280;3426;52.244;10.534;2022-11-15T02:01:59;100296.13;;;9.75;72.84
6778;BME280;3426;52.244;10.534;2022-11-15T02:04:32;100289.75;;;10.09;72.47
6778;BME280;3426;52.244;10.534;2022-11-15T02:06:59;100293.75;;;10.16;71.67
6778;BME280;3426;52.244;10.534;2022-11-15T02:09:28;100289.38;;;10.15;71.28
6778;BME280;3426;52.244;10.534;2022-11-15T02:11:55;100280.44;;;10.18;71.61
6778;BME280;3426;52.244;10.534;2022-11-15T02:14:23;100278.41;;;10.07;72.13
6778;BME280;3426;52.244;10.534;2022-11-15T02:27:47;100269.13;;;10.00;72.67
6778;BME280;3426;52.244;10.534;2022-11-15T02:30:35;100259.31;;;10.02;73.69
6778;BME280;3426;52.244;10.534;2022-11-15T02:36:01;100247.78;;;10.03;73.24
6778;BME280;3426;52.244;10.534;2022-11-15T02:38:47;100247.41;;;10.09;73.59
6778;BME280;3426;52.244;10.534;2022-11-15T02:41:24;100249.63;;;10.17;73.45
6778;BME280;3426;52.244;10.534;2022-11-15T02:44:01;100251.91;;;9.93;73.92
6778;BME280;3426;52.244;10.534;2022-11-15T02:49:17;100253.06;;;10.03;73.57
6778;BME280;3426;52.244;10.534;2022-11-15T02:51:45;100250.19;;;9.92;74.57
6778;BME280;3426;52.244;10.534;2022-11-15T02:54:32;100254.56;;;9.93;74.36
6778;BME280;3426;52.244;10.534;2022-11-15T02:57:05;100255.44;;;10.07;74.71
6778;BME280;3426;52.244;10.534;2022-11-15T03:04:56;100246.91;;;10.02;75.77
6778;BME280;3426;52.244;10.534;2022-11-15T03:07:52;100248.03;;;10.44;74.64
6778;BME280;3426;52.244;10.534;2022-11-15T03:15:32;100244.13;;;10.20;74.87
6778;BME280;3426;52.244;10.534;2022-11-15T03:18:05;100246.06;;;10.62;73.99
6778;BME280;3426;52.244;10.534;2022-11-15T03:20:35;100232.78;;;10.76;73.03
6778;BME280;3426;52.244;10.534;2022-11-15T03:23:08;100240.94;;;10.73;73.05
6778;BME280;3426;52.244;10.534;2022-11-15T03:25:38;100239.44;;;10.83;72.33
6778;BME280;3426;52.244;10.534;2022-11-15T03:28:09;100247.66;;;10.79;72.48
6778;BME280;3426;52.244;10.534;2022-11-15T03:30:39;100237.25;;;10.76;72.36
6778;BME280;3426;52.244;10.534;2022-11-15T03:33:08;100234.69;;;10.74;73.09
6778;BME280;3426;52.244;10.534;2022-11-15T03:35:40;100235.06;;;10.68;72.99
6778;BME280;3426;52.244;10.534;2022-11-15T03:38:11;100222.19;;;10.76;72.31
6778;BME280;3426;52.244;10.534;2022-11-15T03:40:42;100228.84;;;10.83;71.80
6778;BME280;3426;52.244;10.534;2022-11-15T03:43:31;100220.03;;;10.69;72.31
6778;BME280;3426;52.244;10.534;2022-11-15T03:49:04;100225.81;;;10.75;73.01
6778;BME280;3426;52.244;10.534;2022-11-15T03:51:32;100226.84;;;10.87;72.67
6778;BME280;3426;52.244;10.534;2022-11-15T03:53:58;100231.31;;;10.72;73.37
6778;BME280;3426;52.244;10.534;2022-11-15T03:56:25;100222.88;;;10.80;73.07
6778;BME280;3426;52.244;10.534;2022-11-15T03:58:51;100226.25;;;10.82;72.98
6778;BME280;3426;52.244;10.534;2022-11-15T04:01:18;100226.25;;;10.82;72.94
6778;BME280;3426;52.244;10.534;2022-11-15T04:03:44;100229.13;;;10.79;71.52
6778;BME280;3426;52.244;10.534;2022-11-15T04:06:11;100220.50;;;10.75;72.04
6778;BME280;3426;52.244;10.534;2022-11-15T04:08:37;100230.16;;;10.62;72.99
6778;BME280;3426;52.244;10.534;2022-11-15T04:11:04;100235.06;;;10.68;72.89
6778;BME280;3426;52.244;10.534;2022-11-15T04:13:30;100230.06;;;10.78;72.79
6778;BME280;3426;52.244;10.534;2022-11-15T04:15:57;100228.94;;;10.68;73.22
6778;BME280;3426;52.244;10.534;2022-11-15T04:18:24;100228.81;;;10.11;75.63
6778;BME280;3426;52.244;10.534;2022-11-15T04:20:50;100243.31;;;10.64;73.77
6778;BME280;3426;52.244;10.534;2022-11-15T04:23:35;100248.75;;;10.60;73.56
6778;BME280;3426;52.244;10.534;2022-11-15T04:26:22;100239.03;;;10.75;72.53
6778;BME280;3426;52.244;10.534;2022-11-15T04:28:49;100250.13;;;10.68;72.82
6778;BME280;3426;52.244;10.534;2022-11-15T04:31:34;100244.56;;;10.72;72.50
6778;BME280;3426;52.244;10.534;2022-11-15T04:34:00;100256.41;;;10.21;74.47
6778;BME280;3426;52.244;10.534;2022-11-15T04:36:27;100268.41;;;10.12;75.33
6778;BME280;3426;52.244;10.534;2022-11-15T04:39:12;100270.53;;;10.51;73.58
6778;BME280;3426;52.244;10.534;2022-11-15T04:41:38;100253.75;;;10.37;73.34
6778;BME280;3426;52.244;10.534;2022-11-15T04:44:05;100250.94;;;10.40;73.65
6778;BME280;3426;52.244;10.534;2022-11-15T04:46:31;100248.06;;;10.28;74.58
6778;BME280;3426;52.244;10.534;2022-11-15T04:48:58;100253.97;;;10.48;73.68
6778;BME280;3426;52.244;10.534;2022-11-15T04:51:25;100258.72;;;10.57;73.77
6778;BME280;3426;52.244;10.534;2022-11-15T04:53:52;100258.72;;;10.57;73.73
6778;BME280;3426;52.244;10.534;2022-11-15T04:56:19;100258.72;;;10.57;73.23
6778;BME280;3426;52.244;10.534;2022-11-15T04:58:48;100263.44;;;10.66;73.61
6778;BME280;3426;52.244;10.534;2022-11-15T05:01:15;100259.09;;;10.65;72.72
6778;BME280;3426;52.244;10.534;2022-11-15T05:03:42;100256.25;;;10.82;72.47
6778;BME280;3426;52.244;10.534;2022-11-15T05:06:28;100249.16;;;10.83;71.75
6778;BME280;3426;52.244;10.534;2022-11-15T05:08:55;100254.28;;;10.86;72.34
6778;BME280;3426;52.244;10.534;2022-11-15T05:11:22;100251.72;;;10.84;72.79
6778;BME280;3426;52.244;10.534;2022-11-15T05:13:49;100243.84;;;10.83;72.48
6778;BME280;3426;52.244;10.534;2022-11-15T05:16:15;100246.34;;;10.86;72.60
6778;BME280;3426;52.244;10.534;2022-11-15T05:18:42;100247.53;;;10.95;72.21
6778;BME280;3426;52.244;10.534;2022-11-15T05:21:14;100257.66;;;10.59;73.69
6778;BME280;3426;52.244;10.534;2022-11-15T05:23:41;100260.44;;;10.86;72.86
6778;BME280;3426;52.244;10.534;2022-11-15T05:26:08;100254.75;;;10.64;73.54
6778;BME280;3426;52.244;10.534;2022-11-15T05:28:35;100256.44;;;10.94;73.08
6778;BME280;3426;52.244;10.534;2022-11-15T05:31:03;100246.69;;;10.94;72.19
6778;BME280;3426;52.244;10.534;2022-11-15T05:33:31;100240.81;;;10.89;72.62
6778;BME280;3426;52.244;10.534;2022-11-15T05:36:02;100251.59;;;11.00;72.66
6778;BME280;3426;52.244;10.534;2022-11-15T05:38:31;100256.44;;;10.94;72.38
6778;BME280;3426;52.244;10.534;2022-11-15T05:40:59;100243.59;;;11.02;72.10
6778;BME280;3426;52.244;10.534;2022-11-15T05:43:27;100240.66;;;11.06;72.53
6778;BME280;3426;52.244;10.534;2022-11-15T05:45:54;100242.84;;;10.85;72.04
6778;BME280;3426;52.244;10.534;2022-11-15T05:48:21;100242.84;;;10.85;72.64
6778;BME280;3426;52.244;10.534;2022-11-15T05:50:47;100239.72;;;10.79;72.87
6778;BME280;3426;52.244;10.534;2022-11-15T05:53:16;100249.53;;;10.77;72.53
6778;BME280;3426;52.244;10.534;2022-11-15T05:55:43;100241.69;;;10.75;72.98
6778;BME280;3426;52.244;10.534;2022-11-15T05:58:10;100248.41;;;10.52;73.93
6778;BME280;3426;52.244;10.534;2022-11-15T06:00:37;100249.28;;;10.67;73.71
6778;BME280;3426;52.244;10.534;2022-11-15T06:03:03;100246.81;;;10.78;72.82
6778;BME280;3426;52.244;10.534;2022-11-15T06:05:30;100245.78;;;10.67;72.82
6778;BME280;3426;52.244;10.534;2022-11-15T06:07:59;100250.28;;;10.50;73.14
6778;BME280;3426;52.244;10.534;2022-11-15T06:10:26;100251.16;;;10.51;73.98
6778;BME280;3426;52.244;10.534;2022-11-15T06:13:00;100253.69;;;10.22;74.67
6778;BME280;3426;52.244;10.534;2022-11-15T06:15:26;100259.03;;;10.37;73.93
6778;BME280;3426;52.244;10.534;2022-11-15T06:17:56;100255.88;;;10.46;74.17
6778;BME280;3426;52.244;10.534;2022-11-15T06:20:27;100254.69;;;10.35;74.02
6778;BME280;3426;52.244;10.534;2022-11-15T06:23:03;100259.47;;;10.45;73.77
6778;BME280;3426;52.244;10.534;2022-11-15T06:25:30;100263.16;;;10.56;73.16
6778;BME280;3426;52.244;10.534;2022-11-15T06:27:58;100273.19;;;10.66;72.72
6778;BME280;3426;52.244;10.534;2022-11-15T06:30:25;100269.69;;;10.51;73.12
6778;BME280;3426;52.244;10.534;2022-11-15T06:33:01;100260.88;;;10.50;72.65
6778;BME280;3426;52.244;10.534;2022-11-15T06:35:28;100271.94;;;10.57;72.53
6778;BME280;3426;52.244;10.534;2022-11-15T06:37:56;100279.91;;;10.57;71.87
6778;BME280;3426;52.244;10.534;2022-11-15T06:40:27;100275.13;;;10.48;72.44
6778;BME280;3426;52.244;10.534;2022-11-15T06:42:58;100281.88;;;10.53;72.51
6778;BME280;3426;52.244;10.534;2022-11-15T06:45:25;100280.28;;;10.51;73.19
6778;BME280;3426;52.244;10.534;2022-11-15T06:47:52;100283.44;;;10.27;73.18
6778;BME280;3426;52.244;10.534;2022-11-15T06:50:19;100282.50;;;10.13;74.94
6778;BME280;3426;52.244;10.534;2022-11-15T06:52:45;100290.81;;;10.21;74.74
6778;BME280;3426;52.244;10.534;2022-11-15T06:55:12;100292.50;;;10.38;73.87
6778;BME280;3426;52.244;10.534;2022-11-15T06:57:49;100287.78;;;10.43;73.59
6778;BME280;3426;52.244;10.534;2022-11-15T07:00:18;100288.56;;;10.45;73.31
6778;BME280;3426;52.244;10.534;2022-11-15T07:02:46;100291.50;;;10.40;73.21
6778;BME280;3426;52.244;10.534;2022-11-15T07:05:13;100299.47;;;10.24;74.25
6778;BME280;3426;52.244;10.534;2022-11-15T07:07:40;100303.88;;;10.40;74.17
6778;BME280;3426;52.244;10.534;2022-11-15T07:10:07;100310.25;;;10.51;73.49
6778;BME280;3426;52.244;10.534;2022-11-15T07:12:34;100314.91;;;10.32;73.92
6778;BME280;3426;52.244;10.534;2022-11-15T07:15:01;100316.03;;;10.28;74.72
6778;BME280;3426;52.244;10.534;2022-11-15T07:17:27;100311.69;;;10.57;73.99
6778;BME280;3426;52.244;10.534;2022-11-15T07:19:53;100314.09;;;10.46;74.52
6778;BME280;3426;52.244;10.534;2022-11-15T07:22:20;100316.00;;;10.44;74.47
6778;BME280;3426;52.244;10.534;2022-11-15T07:24:46;100330.72;;;10.18;74.89
6778;BME280;3426;52.244;10.534;2022-11-15T07:27:13;100334.31;;;10.01;75.97
6778;BME280;3426;52.244;10.534;2022-11-15T07:29:40;100326.03;;;10.07;75.27
6778;BME280;3426;52.244;10.534;2022-11-15T07:32:06;100320.22;;;10.16;75.02
6778;BME280;3426;52.244;10.534;2022-11-15T07:34:32;100318.06;;;10.39;74.52
6778;BME280;3426;52.244;10.534;2022-11-15T07:36:59;100313.84;;;10.04;74.44
6778;BME280;3426;52.244;10.534;2022-11-15T07:39:25;100315.84;;;10.15;74.30
6778;BME280;3426;52.244;10.534;2022-11-15T07:42:12;100313.34;;;10.44;73.51
6778;BME280;3426;52.244;10.534;2022-11-15T07:44:58;100312.41;;;10.45;73.83
6778;BME280;3426;52.244;10.534;2022-11-15T07:47:24;100308.06;;;10.44;73.51
6778;BME280;3426;52.244;10.534;2022-11-15T07:49:53;100312.41;;;10.45;73.49
6778;BME280;3426;52.244;10.534;2022-11-15T07:52:19;100313.69;;;10.82;72.89
6778;BME280;3426;52.244;10.534;2022-11-15T07:54:46;100316.44;;;10.95;72.68
6778;BME280;3426;52.244;10.534;2022-11-15T07:57:12;100310.59;;;11.04;72.10
6778;BME280;3426;52.244;10.534;2022-11-15T07:59:39;100304.91;;;11.10;71.50
6778;BME280;3426;52.244;10.534;2022-11-15T08:02:05;100296.47;;;10.89;73.13
6778;BME280;3426;52.244;10.534;2022-11-15T08:04:32;100296.56;;;11.86;72.40
6778;BME280;3426;52.244;10.534;2022-11-15T08:06:58;100286.44;;;13.21;66.12
6778;BME280;3426;52.244;10.534;2022-11-15T08:09:25;100265.72;;;14.69;61.37
6778;BME280;3426;52.244;10.534;2022-11-15T08:11:52;100273.00;;;15.68;57.79
6778;BME280;3426;52.244;10.534;2022-11-15T08:14:18;100256.19;;;16.41;54.80
6778;BME280;3426;52.244;10.534;2022-11-15T08:16:45;100249.53;;;16.14;54.36
6778;BME280;3426;52.244;10.534;2022-11-15T08:19:11;100244.91;;;17.10;51.37
6778;BME280;3426;52.244;10.534;2022-11-15T08:21:37;100236.53;;;17.34;51.06
6778;BME280;3426;52.244;10.534;2022-11-15T08:24:04;100242.28;;;16.89;53.31
6778;BME280;3426;52.244;10.534;2022-11-15T08:26:31;100252.25;;;17.08;51.70
6778;BME280;3426;52.244;10.534;2022-11-15T08:28:57;100246.53;;;16.91;51.64
6778;BME280;3426;52.244;10.534;2022-11-15T08:31:24;100246.13;;;16.33;53.56
6778;BME280;3426;52.244;10.534;2022-11-15T08:33:50;100245.31;;;16.12;54.91
6778;BME280;3426;52.244;10.534;2022-11-15T08:36:17;100242.47;;;16.55;53.64
6778;BME280;3426;52.244;10.534;2022-11-15T08:38:44;100237.47;;;16.41;53.76
6778;BME280;3426;52.244;10.534;2022-11-15T08:41:13;100249.25;;;15.97;54.92
6778;BME280;3426;52.244;10.534;2022-11-15T08:43:42;100244.53;;;15.89;55.23
6778;BME280;3426;52.244;10.534;2022-11-15T08:46:11;100240.50;;;15.51;56.96
6778;BME280;3426;52.244;10.534;2022-11-15T08:48:39;100238.84;;;15.17;58.29
6778;BME280;3426;52.244;10.534;2022-11-15T08:51:05;100230.72;;;15.07;58.87
6778;BME280;3426;52.244;10.534;2022-11-15T08:53:33;100234.72;;;15.01;59.29
6778;BME280;3426;52.244;10.534;2022-11-15T08:56:00;100239.22;;;14.78;60.37
6778;BME280;3426;52.244;10.534;2022-11-15T08:58:27;100229.56;;;14.42;62.03
6778;BME280;3426;52.244;10.534;2022-11-15T09:00:53;100227.38;;;14.36;62.07
6778;BME280;3426;52.244;10.534;2022-11-15T09:03:20;100231.72;;;14.26;62.71
6778;BME280;3426;52.244;10.534;2022-11-15T09:05:46;100222.75;;;14.27;63.04
6778;BME280;3426;52.244;10.534;2022-11-15T09:08:13;100226.03;;;14.30;63.26
6778;BME280;3426;52.244;10.534;2022-11-15T09:11:06;100232.31;;;14.18;63.71
6778;BME280;3426;52.244;10.534;2022-11-15T09:13:33;100226.84;;;14.20;64.08
6778;BME280;3426;52.244;10.534;2022-11-15T09:16:00;100235.22;;;13.91;64.62
6778;BME280;3426;52.244;10.534;2022-11-15T09:18:27;100236.97;;;14.03;64.91
6778;BME280;3426;52.244;10.534;2022-11-15T09:20:59;100237.34;;;14.10;64.34
6778;BME280;3426;52.244;10.534;2022-11-15T09:23:26;100233.63;;;13.89;64.53
6778;BME280;3426;52.244;10.534;2022-11-15T09:26:01;100242.66;;;14.10;64.48
6778;BME280;3426;52.244;10.534;2022-11-15T09:28:29;100236.03;;;14.16;64.13
6778;BME280;3426;52.244;10.534;2022-11-15T09:31:02;100246.72;;;14.27;63.37
6778;BME280;3426;52.244;10.534;2022-11-15T09:33:29;100242.91;;;14.42;63.47
6778;BME280;3426;52.244;10.534;2022-11-15T09:36:04;100245.34;;;14.56;62.89
6778;BME280;3426;52.244;10.534;2022-11-15T09:38:31;100244.69;;;15.10;61.60
6778;BME280;3426;52.244;10.534;2022-11-15T09:49:22;100237.22;;;16.86;55.21
6778;BME280;3426;52.244;10.534;2022-11-15T09:51:50;100232.13;;;16.41;57.13
6778;BME280;3426;52.244;10.534;2022-11-15T09:54:34;100230.75;;;15.61;58.27
6778;BME280;3426;52.244;10.534;2022-11-15T10:00:13;100225.00;;;15.88;58.62
6778;BME280;3426;52.244;10.534;2022-11-15T10:03:13;100226.97;;;15.32;59.40
6778;BME280;3426;52.244;10.534;2022-11-15T10:05:46;100221.66;;;15.09;60.55
6778;BME280;3426;52.244;10.534;2022-11-15T10:11:10;100227.34;;;15.05;61.84
6778;BME280;3426;52.244;10.534;2022-11-15T10:14:01;100221.25;;;14.80;62.98
6778;BME280;3426;52.244;10.534;2022-11-15T10:25:21;100204.56;;;14.90;63.08
6778;BME280;3426;52.244;10.534;2022-11-15T10:28:26;100193.50;;;15.17;62.78
6778;BME280;3426;52.244;10.534;2022-11-15T10:30:56;100192.78;;;15.15;62.93
6778;BME280;3426;52.244;10.534;2022-11-15T10:36:14;100186.81;;;15.22;63.21
6778;BME280;3426;52.244;10.534;2022-11-15T10:49:26;100169.94;;;15.33;62.86
6778;BME280;3426;52.244;10.534;2022-11-15T10:54:37;100162.75;;;15.45;62.60
6778;BME280;3426;52.244;10.534;2022-11-15T10:57:14;100164.09;;;15.39;63.14
6778;BME280;3426;52.244;10.534;2022-11-15T10:59:48;100151.31;;;15.86;61.52
6778;BME280;3426;52.244;10.534;2022-11-15T11:02:45;100162.13;;;15.52;62.19
6778;BME280;3426;52.244;10.534;2022-11-15T11:05:46;100152.66;;;15.48;62.06
6778;BME280;3426;52.244;10.534;2022-11-15T11:10:59;100147.84;;;15.74;61.73
6778;BME280;3426;52.244;10.534;2022-11-15T11:21:13;100155.25;;;16.24;60.06
6778;BME280;3426;52.244;10.534;2022-11-15T11:23:45;100159.25;;;16.39;60.07
6778;BME280;3426;52.244;10.534;2022-11-15T11:29:15;100149.19;;;16.52;60.67
6778;BME280;3426;52.244;10.534;2022-11-15T11:31:53;100145.53;;;16.02;60.56
6778;BME280;3426;52.244;10.534;2022-11-15T11:37:28;100149.22;;;16.31;61.12
6778;BME280;3426;52.244;10.534;2022-11-15T11:45:40;100140.69;;;16.37;61.11
6778;BME280;3426;52.244;10.534;2022-11-15T11:48:14;100147.16;;;16.35;61.74
6778;BME280;3426;52.244;10.534;2022-11-15T11:50:47;100147.19;;;16.44;61.62
6778;BME280;3426;52.244;10.534;2022-11-15T11:53:29;100152.44;;;16.04;62.48
6778;BME280;3426;52.244;10.534;2022-11-15T11:56:01;100140.63;;;16.28;62.07
6778;BME280;3426;52.244;10.534;2022-11-15T11:58:38;100145.59;;;16.11;62.72
6778;BME280;3426;52.244;10.534;2022-11-15T12:01:18;100142.06;;;16.32;61.90
6778;BME280;3426;52.244;10.534;2022-11-15T12:03:55;100140.22;;;16.32;62.03
6778;BME280;3426;52.244;10.534;2022-11-15T12:06:36;100138.94;;;16.27;62.37
6778;BME280;3426;52.244;10.534;2022-11-15T12:09:21;100128.97;;;16.08;62.63
6778;BME280;3426;52.244;10.534;2022-11-15T12:14:55;100127.94;;;16.20;62.25
6778;BME280;3426;52.244;10.534;2022-11-15T12:17:24;100123.47;;;16.51;61.40
6778;BME280;3426;52.244;10.534;2022-11-15T12:20:19;100121.88;;;16.18;62.61
6778;BME280;3426;52.244;10.534;2022-11-15T12:23:10;100125.31;;;16.30;62.52
6778;BME280;3426;52.244;10.534;2022-11-15T12:25:50;100126.50;;;16.16;62.80
6778;BME280;3426;52.244;10.534;2022-11-15T12:31:06;100113.72;;;16.20;62.68
6778;BME280;3426;52.244;10.534;2022-11-15T12:33:40;100111.47;;;15.94;62.68
6778;BME280;3426;52.244;10.534;2022-11-15T12:41:27;100098.91;;;16.06;61.54
6778;BME280;3426;52.244;10.534;2022-11-15T12:43:55;100093.03;;;16.12;61.29
6778;BME280;3426;52.244;10.534;2022-11-15T12:52:08;100101.72;;;16.35;60.33
6778;BME280;3426;52.244;10.534;2022-11-15T12:59:48;100085.19;;;16.60;60.57
6778;BME280;3426;52.244;10.534;2022-11-15T13:02:20;100085.38;;;16.68;59.54
6778;BME280;3426;52.244;10.534;2022-11-15T13:04:47;100084.50;;;16.58;60.16
6778;BME280;3426;52.244;10.534;2022-11-15T13:17:43;100068.00;;;16.13;61.22
6778;BME280;3426;52.244;10.534;2022-11-15T13:30:53;100064.09;;;16.17;61.58
6778;BME280;3426;52.244;10.534;2022-11-15T13:33:46;100071.22;;;16.16;61.42
6778;BME280;3426;52.244;10.534;2022-11-15T13:36:18;100059.69;;;16.16;61.76
6778;BME280;3426;52.244;10.534;2022-11-15T13:39:03;100048.53;;;16.32;60.98
6778;BME280;3426;52.244;10.534;2022-11-15T13:41:35;100041.41;;;16.11;61.68
6778;BME280;3426;52.244;10.534;2022-11-15T13:44:03;100030.69;;;16.02;61.81
6778;BME280;3426;52.244;10.534;2022-11-15T13:46:32;100041.63;;;16.29;61.75
6778;BME280;3426;52.244;10.534;2022-11-15T13:49:03;100032.22;;;16.04;62.17
6778;BME280;3426;52.244;10.534;2022-11-15T13:51:35;100029.38;;;15.96;62.44
6778;BME280;3426;52.244;10.534;2022-11-15T13:56:32;100017.06;;;15.42;64.02
6778;BME280;3426;52.244;10.534;2022-11-15T13:59:13;100020.97;;;16.01;61.86
6778;BME280;3426;52.244;10.534;2022-11-15T14:01:42;100022.53;;;16.03;61.52
6778;BME280;3426;52.244;10.534;2022-11-15T14:04:13;100020.50;;;16.26;61.33
6778;BME280;3426;52.244;10.534;2022-11-15T14:06:48;100020.91;;;16.22;61.31
6778;BME280;3426;52.244;10.534;2022-11-15T14:09:36;100014.78;;;16.31;61.23
6778;BME280;3426;52.244;10.534;2022-11-15T14:12:23;100013.13;;;16.09;61.65
6778;BME280;3426;52.244;10.534;2022-11-15T14:14:50;100008.47;;;16.41;60.98
6778;BME280;3426;52.244;10.534;2022-11-15T14:19:59;99999.78;;;16.09;62.37
6778;BME280;3426;52.244;10.534;2022-11-15T14:22:28;99997.06;;;15.99;63.55
6778;BME280;3426;52.244;10.534;2022-11-15T14:25:05;99999.88;;;15.98;62.78
6778;BME280;3426;52.244;10.534;2022-11-15T14:27:33;99998.41;;;15.84;62.94
6778;BME280;3426;52.244;10.534;2022-11-15T14:30:00;99996.81;;;15.72;63.55
6778;BME280;3426;52.244;10.534;2022-11-15T14:32:29;99994.03;;;15.62;63.58
6778;BME280;3426;52.244;10.534;2022-11-15T14:34:59;99997.16;;;15.88;63.01
6778;BME280;3426;52.244;10.534;2022-11-15T14:37:30;99998.31;;;15.53;64.87
6778;BME280;3426;52.244;10.534;2022-11-15T14:40:03;99991.94;;;15.86;63.19
6778;BME280;3426;52.244;10.534;2022-11-15T14:42:30;99989.91;;;16.00;62.55
6778;BME280;3426;52.244;10.534;2022-11-15T14:44:57;99991.59;;;16.01;62.63
6778;BME280;3426;52.244;10.534;2022-11-15T14:47:23;99993.91;;;15.84;62.70
6778;BME280;3426;52.244;10.534;2022-11-15T14:49:50;99985.69;;;15.67;63.54
6778;BME280;3426;52.244;10.534;2022-11-15T14:52:27;99984.00;;;15.66;64.74
6778;BME280;3426;52.244;10.534;2022-11-15T14:54:58;99987.09;;;15.50;64.12
6778;BME280;3426;52.244;10.534;2022-11-15T14:57:25;99985.69;;;15.67;63.89
6778;BME280;3426;52.244;10.534;2022-11-15T14:59:51;99985.25;;;15.50;64.83
6778;BME280;3426;52.244;10.534;2022-11-15T15:02:23;99986.31;;;15.38;65.02
6778;BME280;3426;52.244;10.534;2022-11-15T15:04:50;99982.72;;;15.49;64.77
6778;BME280;3426;52.244;10.534;2022-11-15T15:07:17;99975.81;;;15.25;65.68
6778;BME280;3426;52.244;10.534;2022-11-15T15:09:44;99978.50;;;15.46;64.67
6778;BME280;3426;52.244;10.534;2022-11-15T15:12:19;99974.19;;;15.34;65.30
6778;BME280;3426;52.244;10.534;2022-11-15T15:14:47;99971.91;;;15.50;64.60
6778;BME280;3426;52.244;10.534;2022-11-15T15:17:15;99967.50;;;15.60;64.45
6778;BME280;3426;52.244;10.534;2022-11-15T15:19:42;99972.19;;;15.26;65.65
6778;BME280;3426;52.244;10.534;2022-11-15T15:22:16;99973.78;;;15.18;65.39
6778;BME280;3426;52.244;10.534;2022-11-15T15:24:44;99960.53;;;15.27;65.28
6778;BME280;3426;52.244;10.534;2022-11-15T15:27:11;99963.97;;;15.18;65.55
6778;BME280;3426;52.244;10.534;2022-11-15T15:29:38;99956.88;;;15.28;65.45
6778;BME280;3426;52.244;10.534;2022-11-15T15:32:05;99957.41;;;15.22;65.84
6778;BME280;3426;52.244;10.534;2022-11-15T15:34:32;99964.56;;;15.22;65.69
6778;BME280;3426;52.244;10.534;2022-11-15T15:39:43;99944.06;;;15.22;65.63
6778;BME280;3426;52.244;10.534;2022-11-15T15:42:10;99939.81;;;15.20;65.39
6778;BME280;3426;52.244;10.534;2022-11-15T15:44:36;99948.81;;;14.98;66.25